Time;durP1;ratioP1;P1;durP2;ratioP2;P2;SDS_P1;SDS_P2;PMS_P1;PMS_P2;Temp;Humidity;BMP_temperature;BMP_pressure;BME280_temperature;BME280_humidity;BME280_pressure;Samples;Min_cycle;Max_cycle;Signal;HPM_P1;HPM_P2
2022/02/26 00:00:43;;;;;;;10.03;5.17;;;4.50;99.90;;;;;;5073780;28;20492;-67
2022/02/26 00:03:10;;;;;;;16.30;7.13;;;4.40;99.90;;;;;;5073936;28;20487;-67
2022/02/26 00:05:37;;;;;;;14.93;6.90;;;4.40;99.90;;;;;;5073982;28;20853;-67
2022/02/26 00:08:04;;;;;;;23.30;7.67;;;4.30;99.90;;;;;;5073508;28;20463;-67
2022/02/26 00:10:31;;;;;;;21.00;8.37;;;4.40;99.90;;;;;;5073788;28;20894;-67
2022/02/26 00:12:57;;;;;;;25.17;7.90;;;4.40;99.90;;;;;;5073522;28;20915;-67
2022/02/26 00:15:25;;;;;;;11.97;6.13;;;4.40;99.90;;;;;;5073791;28;20445;-67
2022/02/26 00:17:53;;;;;;;16.17;7.03;;;4.40;99.90;;;;;;5073320;28;20855;-67
2022/02/26 00:20:19;;;;;;;14.77;6.07;;;4.40;99.90;;;;;;5073613;28;20496;-67
2022/02/26 00:22:46;;;;;;;17.90;5.50;;;4.40;99.90;;;;;;5073341;28;20444;-67
2022/02/26 00:25:14;;;;;;;25.33;7.37;;;4.40;99.90;;;;;;5073351;28;20955;-68
2022/02/26 00:27:41;;;;;;;13.23;5.50;;;4.30;99.90;;;;;;5073562;28;20498;-67
2022/02/26 00:30:08;;;;;;;15.90;5.33;;;4.30;99.90;;;;;;5073504;28;20841;-67
2022/02/26 00:32:35;;;;;;;13.53;6.37;;;4.20;99.90;;;;;;5073550;28;20869;-67
2022/02/26 00:35:04;;;;;;;12.33;6.27;;;4.20;99.90;;;;;;5073559;28;20482;-67
2022/02/26 00:37:31;;;;;;;14.00;5.90;;;4.20;99.90;;;;;;5073189;28;20947;-67
2022/02/26 00:39:57;;;;;;;14.33;6.20;;;4.20;99.90;;;;;;5073396;28;20472;-67
2022/02/26 00:42:24;;;;;;;14.50;7.13;;;4.10;99.90;;;;;;5073136;28;20448;-67
2022/02/26 00:44:51;;;;;;;18.17;6.70;;;4.10;99.90;;;;;;5073485;28;20445;-67
2022/02/26 00:47:18;;;;;;;15.33;6.67;;;4.10;99.90;;;;;;5073337;28;20464;-67
2022/02/26 00:49:50;;;;;;;20.87;7.50;;;4.10;99.90;;;;;;5072671;28;20483;-67
2022/02/26 00:52:21;;;;;;;21.27;7.80;;;4.10;99.90;;;;;;5073336;28;20433;-67
2022/02/26 00:54:48;;;;;;;18.07;7.17;;;4.10;99.90;;;;;;5073148;28;20440;-67
2022/02/26 00:57:15;;;;;;;15.30;6.70;;;4.20;99.90;;;;;;5073289;28;20456;-67
2022/02/26 00:59:42;;;;;;;19.47;7.50;;;4.20;99.90;;;;;;5072894;28;20994;-67
2022/02/26 01:02:09;;;;;;;13.83;6.77;;;4.20;99.90;;;;;;5073198;28;20498;-67
2022/02/26 01:04:37;;;;;;;23.40;6.33;;;4.30;99.90;;;;;;5073342;28;20452;-67
2022/02/26 01:07:05;;;;;;;16.00;6.77;;;4.40;99.90;;;;;;5072684;28;20469;-67
2022/02/26 01:09:33;;;;;;;15.80;7.37;;;4.30;99.90;;;;;;5073122;28;20479;-67
2022/02/26 01:12:02;;;;;;;13.80;6.97;;;4.30;99.90;;;;;;5073185;28;20468;-67
2022/02/26 01:14:28;;;;;;;21.67;7.83;;;4.20;99.90;;;;;;5072791;28;20938;-67
2022/02/26 01:16:55;;;;;;;18.20;7.50;;;4.20;99.90;;;;;;5072999;28;20452;-67
2022/02/26 01:19:22;;;;;;;11.20;6.80;;;4.30;99.90;;;;;;5072673;28;20464;-67
2022/02/26 01:21:49;;;;;;;11.53;6.63;;;4.40;99.90;;;;;;5072981;28;20472;-67
2022/02/26 01:24:16;;;;;;;16.20;6.63;;;4.40;99.90;;;;;;5073018;28;20444;-67
2022/02/26 01:26:44;;;;;;;17.07;7.20;;;4.40;99.90;;;;;;5072983;28;20445;-67
2022/02/26 01:29:11;;;;;;;23.00;7.77;;;4.40;99.90;;;;;;5072593;28;20465;-67
2022/02/26 01:31:38;;;;;;;13.67;6.97;;;4.40;99.90;;;;;;5072684;28;20441;-67
2022/02/26 01:34:06;;;;;;;19.17;7.27;;;4.50;99.90;;;;;;5072943;28;20453;-67
2022/02/26 01:36:33;;;;;;;15.27;7.43;;;4.50;99.90;;;;;;5072935;28;20456;-67
2022/02/26 01:39:00;;;;;;;24.10;8.10;;;4.40;99.90;;;;;;5072828;28;20850;-67
2022/02/26 01:41:29;;;;;;;18.53;7.87;;;4.30;99.90;;;;;;5072778;28;20480;-67
2022/02/26 01:43:57;;;;;;;22.60;7.90;;;4.30;99.90;;;;;;5072814;28;20475;-67
2022/02/26 01:46:24;;;;;;;17.87;7.83;;;4.20;99.90;;;;;;5072476;28;20450;-67
2022/02/26 01:48:51;;;;;;;18.47;7.30;;;4.20;99.90;;;;;;5072700;28;20440;-67
2022/02/26 01:51:19;;;;;;;17.97;8.13;;;4.10;99.90;;;;;;5072774;28;20425;-67
2022/02/26 01:53:46;;;;;;;15.40;8.20;;;4.10;99.90;;;;;;5072681;28;20855;-67
2022/02/26 01:56:13;;;;;;;17.83;7.03;;;4.20;99.90;;;;;;5072747;28;20448;-67
2022/02/26 01:58:40;;;;;;;14.77;8.17;;;4.20;99.90;;;;;;5072630;28;20460;-67
2022/02/26 02:01:11;;;;;;;13.63;7.43;;;4.20;99.90;;;;;;5075443;28;20529;-67
2022/02/26 02:03:38;;;;;;;18.00;8.07;;;4.10;99.90;;;;;;5076031;28;20939;-67
2022/02/26 02:06:05;;;;;;;23.47;7.90;;;4.10;99.90;;;;;;5076871;28;20452;-67
2022/02/26 02:08:32;;;;;;;23.73;8.10;;;4.10;99.90;;;;;;5075766;28;20956;-67
2022/02/26 02:10:59;;;;;;;17.30;7.03;;;4.00;99.90;;;;;;5076094;28;20464;-67
2022/02/26 02:13:26;;;;;;;16.03;7.60;;;4.10;99.90;;;;;;5076116;28;20441;-67
2022/02/26 02:15:54;;;;;;;25.80;8.73;;;4.10;99.90;;;;;;5076065;28;20448;-67
2022/02/26 02:18:22;;;;;;;25.07;9.60;;;4.00;99.90;;;;;;5076030;28;21004;-67
2022/02/26 02:20:50;;;;;;;17.20;7.53;;;4.00;99.90;;;;;;5075889;28;20495;-67
2022/02/26 02:23:18;;;;;;;32.80;10.17;;;4.10;99.90;;;;;;5076033;28;20445;-67
2022/02/26 02:25:45;;;;;;;25.20;8.60;;;3.90;99.90;;;;;;5075984;28;20457;-67
2022/02/26 02:28:12;;;;;;;24.00;9.40;;;3.90;99.90;;;;;;5075861;28;20451;-67
2022/02/26 02:30:39;;;;;;;22.53;8.17;;;4.00;99.90;;;;;;5075762;28;20464;-67
2022/02/26 02:33:07;;;;;;;24.27;9.13;;;4.00;99.90;;;;;;5075677;28;20456;-67
2022/02/26 02:35:35;;;;;;;27.67;9.73;;;4.00;99.90;;;;;;5075612;28;20444;-67
2022/02/26 02:38:05;;;;;;;21.40;9.33;;;4.00;99.90;;;;;;5075618;28;20429;-67
2022/02/26 02:40:33;;;;;;;20.70;9.40;;;4.10;99.90;;;;;;5075209;28;20452;-67
2022/02/26 02:43:00;;;;;;;19.77;9.57;;;4.10;99.90;;;;;;5075221;28;20436;-67
2022/02/26 02:45:27;;;;;;;16.63;8.97;;;4.10;99.90;;;;;;5075168;28;20944;-67
2022/02/26 02:47:53;;;;;;;31.50;9.40;;;4.10;99.90;;;;;;5075472;28;20441;-67
2022/02/26 02:50:20;;;;;;;19.17;9.83;;;4.10;99.90;;;;;;5075385;28;20475;-67
2022/02/26 02:52:48;;;;;;;18.40;9.53;;;4.10;99.90;;;;;;5075592;28;20467;-67
2022/02/26 02:55:15;;;;;;;21.33;10.00;;;4.10;99.90;;;;;;5075746;28;20522;-68
2022/02/26 02:57:44;;;;;;;22.10;11.37;;;4.10;99.90;;;;;;5075524;28;20459;-68
2022/02/26 03:00:13;;;;;;;22.23;10.23;;;4.10;99.90;;;;;;5076323;28;20456;-67
2022/02/26 03:02:40;;;;;;;20.63;10.90;;;4.10;99.90;;;;;;5075499;28;21014;-67
2022/02/26 03:05:07;;;;;;;17.63;9.90;;;4.00;99.90;;;;;;5075427;28;20943;-67
2022/02/26 03:07:34;;;;;;;24.43;11.17;;;4.00;99.90;;;;;;5075032;28;20464;-67
2022/02/26 03:10:01;;;;;;;18.37;10.60;;;4.10;99.90;;;;;;5075527;28;20569;-67
2022/02/26 03:12:28;;;;;;;16.57;9.70;;;4.10;99.90;;;;;;5075078;28;20444;-67
2022/02/26 03:14:56;;;;;;;25.50;10.73;;;4.20;99.90;;;;;;5075801;28;20444;-67
2022/02/26 03:17:23;;;;;;;18.30;9.57;;;4.30;99.90;;;;;;5076276;28;20449;-68
2022/02/26 03:19:50;;;;;;;23.30;9.33;;;4.40;99.90;;;;;;5076841;28;20471;-67
2022/02/26 03:22:17;;;;;;;17.70;8.40;;;4.40;99.90;;;;;;5076759;28;20476;-67
2022/02/26 03:24:44;;;;;;;16.13;8.20;;;4.40;99.90;;;;;;5076412;28;20932;-67
2022/02/26 03:27:11;;;;;;;14.17;7.73;;;4.40;99.90;;;;;;5075724;28;20471;-67
2022/02/26 03:29:39;;;;;;;22.40;9.20;;;4.50;99.90;;;;;;5075421;28;20975;-67
2022/02/26 03:32:08;;;;;;;21.53;9.73;;;4.50;99.90;;;;;;5075178;28;20448;-67
2022/02/26 03:34:36;;;;;;;25.87;10.67;;;4.50;99.90;;;;;;5075504;28;20449;-67
2022/02/26 03:37:03;;;;;;;17.73;10.17;;;4.40;99.90;;;;;;5075138;28;20452;-67
2022/02/26 03:39:31;;;;;;;30.23;9.73;;;4.40;99.90;;;;;;5074584;28;20472;-67
2022/02/26 03:41:59;;;;;;;20.90;9.80;;;4.40;99.90;;;;;;5073968;28;20572;-68
2022/02/26 03:44:26;;;;;;;23.47;10.07;;;4.40;99.90;;;;;;5074107;28;20437;-67
2022/02/26 03:46:53;;;;;;;19.07;9.30;;;4.40;99.90;;;;;;5074404;28;20488;-67
2022/02/26 03:49:21;;;;;;;17.43;9.50;;;4.40;99.90;;;;;;5074264;28;20476;-67
2022/02/26 03:51:49;;;;;;;22.87;10.03;;;4.40;99.90;;;;;;5074001;28;20927;-67
2022/02/26 03:54:16;;;;;;;22.27;10.37;;;4.40;99.90;;;;;;5074274;28;20451;-67
2022/02/26 03:56:42;;;;;;;18.83;9.03;;;4.50;99.90;;;;;;5074184;28;20452;-67
2022/02/26 03:59:09;;;;;;;19.83;8.93;;;4.50;99.90;;;;;;5073919;28;20463;-67
2022/02/26 04:01:37;;;;;;;13.73;8.13;;;4.50;99.90;;;;;;5073905;28;20481;-67
2022/02/26 04:04:04;;;;;;;16.60;8.53;;;4.50;99.90;;;;;;5074030;28;20455;-68
2022/02/26 04:06:32;;;;;;;13.87;8.23;;;4.50;99.90;;;;;;5073904;28;20457;-67
2022/02/26 04:08:59;;;;;;;20.40;8.83;;;4.50;99.90;;;;;;5074535;28;20900;-67
2022/02/26 04:11:25;;;;;;;16.27;8.50;;;4.50;99.90;;;;;;5073554;28;20447;-68
2022/02/26 04:13:52;;;;;;;18.30;8.43;;;4.50;99.90;;;;;;5073853;28;20456;-67
2022/02/26 04:16:19;;;;;;;17.07;9.00;;;4.50;99.90;;;;;;5073848;28;20807;-67
2022/02/26 04:18:46;;;;;;;17.90;9.50;;;4.50;99.90;;;;;;5073437;28;20939;-67
2022/02/26 04:21:13;;;;;;;14.00;8.00;;;4.50;99.90;;;;;;5073368;28;20486;-67
2022/02/26 04:23:41;;;;;;;20.47;9.13;;;4.50;99.90;;;;;;5073287;28;20932;-67
2022/02/26 04:26:08;;;;;;;18.27;8.03;;;4.50;99.90;;;;;;5073743;28;20448;-67
2022/02/26 04:28:35;;;;;;;14.50;8.30;;;4.40;99.90;;;;;;5073681;28;20448;-67
2022/02/26 04:31:02;;;;;;;23.00;9.83;;;4.40;99.90;;;;;;5073537;28;20869;-67
2022/02/26 04:33:29;;;;;;;20.33;10.17;;;4.40;99.90;;;;;;5073633;28;20448;-67
2022/02/26 04:35:56;;;;;;;23.53;8.50;;;4.40;99.90;;;;;;5073604;28;20452;-67
2022/02/26 04:38:23;;;;;;;25.63;9.10;;;4.40;99.90;;;;;;5073522;28;20560;-67
2022/02/26 04:40:51;;;;;;;24.00;10.10;;;4.40;99.90;;;;;;5073558;28;20472;-67
2022/02/26 04:43:18;;;;;;;15.20;9.20;;;4.40;99.90;;;;;;5073566;28;20484;-67
2022/02/26 04:45:45;;;;;;;15.33;8.90;;;4.30;99.90;;;;;;5073590;28;20448;-67
2022/02/26 04:48:12;;;;;;;16.70;8.97;;;4.30;99.90;;;;;;5073444;28;20459;-67
2022/02/26 04:50:39;;;;;;;18.90;10.67;;;4.30;99.90;;;;;;5073508;28;20468;-67
2022/02/26 04:53:05;;;;;;;24.30;9.50;;;4.30;99.90;;;;;;5074141;28;20449;-67
2022/02/26 04:55:32;;;;;;;20.00;8.80;;;4.30;99.90;;;;;;5073538;28;20445;-67
2022/02/26 04:58:00;;;;;;;16.67;9.30;;;4.30;99.90;;;;;;5073599;28;20823;-67
2022/02/26 05:00:27;;;;;;;17.70;8.80;;;4.20;99.90;;;;;;5073409;28;20523;-67
2022/02/26 05:02:54;;;;;;;18.93;8.23;;;4.20;99.90;;;;;;5072969;28;20911;-68
2022/02/26 05:05:21;;;;;;;16.83;8.27;;;4.20;99.90;;;;;;5073456;28;20436;-68
2022/02/26 05:07:48;;;;;;;19.67;8.23;;;4.20;99.90;;;;;;5073378;28;20464;-68
2022/02/26 05:10:15;;;;;;;16.07;8.80;;;4.20;99.90;;;;;;5073296;28;20468;-68
2022/02/26 05:12:42;;;;;;;16.90;8.77;;;4.20;99.90;;;;;;5073278;28;20448;-68
2022/02/26 05:15:11;;;;;;;14.10;8.20;;;4.10;99.90;;;;;;5072855;28;20944;-68
2022/02/26 05:17:39;;;;;;;19.00;8.93;;;4.10;99.90;;;;;;5073241;28;20436;-67
2022/02/26 05:20:07;;;;;;;17.00;9.00;;;4.00;99.90;;;;;;5072798;28;20983;-67
2022/02/26 05:22:35;;;;;;;16.13;8.60;;;4.10;99.90;;;;;;5072710;28;20572;-67
2022/02/26 05:25:02;;;;;;;15.10;9.50;;;4.00;99.90;;;;;;5072998;28;20449;-67
2022/02/26 05:27:29;;;;;;;13.27;8.30;;;4.00;99.90;;;;;;5072779;28;20445;-67
2022/02/26 05:29:56;;;;;;;17.77;8.63;;;4.00;99.90;;;;;;5072678;28;20987;-67
2022/02/26 05:32:24;;;;;;;15.23;8.00;;;4.00;99.90;;;;;;5073009;28;20445;-67
2022/02/26 05:34:52;;;;;;;18.90;9.63;;;3.90;99.90;;;;;;5073975;28;20462;-67
2022/02/26 05:37:19;;;;;;;11.10;8.63;;;3.90;99.90;;;;;;5076692;28;20452;-68
2022/02/26 05:39:45;;;;;;;13.33;8.27;;;3.80;99.90;;;;;;5076666;28;20469;-67
2022/02/26 05:42:12;;;;;;;12.77;8.87;;;3.80;99.90;;;;;;5076665;28;20472;-70
2022/02/26 05:44:39;;;;;;;16.40;9.20;;;3.80;99.90;;;;;;5076638;28;20443;-67
2022/02/26 05:47:06;;;;;;;13.87;8.73;;;3.80;99.90;;;;;;5076555;28;20817;-67
2022/02/26 05:49:35;;;;;;;14.97;9.13;;;3.80;99.90;;;;;;5076400;28;20475;-67
2022/02/26 05:52:01;;;;;;;23.13;8.60;;;3.70;99.90;;;;;;5076525;28;20429;-67
2022/02/26 05:54:28;;;;;;;23.37;9.13;;;3.70;99.90;;;;;;5076425;28;20519;-67
2022/02/26 05:56:55;;;;;;;11.23;8.60;;;3.70;99.90;;;;;;5076331;28;20452;-67
2022/02/26 05:59:22;;;;;;;20.00;9.50;;;3.70;99.90;;;;;;5076257;28;20474;-67
2022/02/26 06:01:48;;;;;;;16.13;8.67;;;3.60;99.90;;;;;;5075919;28;20449;-67
2022/02/26 06:04:15;;;;;;;12.83;8.17;;;3.70;99.90;;;;;;5076294;28;20452;-67
2022/02/26 06:06:43;;;;;;;15.27;9.30;;;3.70;99.90;;;;;;5076074;28;20445;-67
2022/02/26 06:09:10;;;;;;;18.17;9.40;;;3.60;99.90;;;;;;5076378;28;20464;-67
2022/02/26 06:11:37;;;;;;;16.30;9.53;;;3.60;99.90;;;;;;5075815;28;20939;-67
2022/02/26 06:14:04;;;;;;;14.83;8.23;;;3.60;99.90;;;;;;5076084;28;20931;-67
2022/02/26 06:16:31;;;;;;;17.70;9.90;;;3.60;99.90;;;;;;5076060;28;20813;-67
2022/02/26 06:18:58;;;;;;;21.10;10.50;;;3.60;99.90;;;;;;5075880;28;20440;-67
2022/02/26 06:21:24;;;;;;;26.40;9.40;;;3.60;99.90;;;;;;5075630;28;20429;-67
2022/02/26 06:23:52;;;;;;;19.87;10.40;;;3.60;99.90;;;;;;5075886;28;20465;-67
2022/02/26 06:26:19;;;;;;;18.33;10.57;;;3.60;99.90;;;;;;5075819;28;20436;-67
2022/02/26 06:28:46;;;;;;;15.63;11.13;;;3.60;99.90;;;;;;5076566;28;20471;-67
2022/02/26 06:31:13;;;;;;;16.53;10.43;;;3.60;99.90;;;;;;5075825;28;20472;-67
2022/02/26 06:33:39;;;;;;;20.33;11.57;;;3.60;99.90;;;;;;5075827;28;20469;-67
2022/02/26 06:36:06;;;;;;;16.53;11.57;;;3.70;99.90;;;;;;5075659;28;20535;-67
2022/02/26 06:38:33;;;;;;;18.07;8.87;;;3.70;99.90;;;;;;5075615;28;20455;-67
2022/02/26 06:41:01;;;;;;;16.80;10.33;;;3.70;99.90;;;;;;5075540;28;20469;-67
2022/02/26 06:43:28;;;;;;;17.30;11.30;;;3.70;99.90;;;;;;5075197;28;20472;-67
2022/02/26 06:45:54;;;;;;;22.03;10.87;;;3.70;99.90;;;;;;5074475;28;20924;-67
2022/02/26 06:48:21;;;;;;;19.53;13.10;;;3.70;99.90;;;;;;5074793;28;20443;-67
2022/02/26 06:50:48;;;;;;;28.70;15.90;;;3.70;99.90;;;;;;5075461;28;20464;-67
2022/02/26 06:53:15;;;;;;;31.30;19.67;;;3.70;99.90;;;;;;5075291;28;20940;-67
2022/02/26 06:55:41;;;;;;;19.67;13.13;;;3.70;99.90;;;;;;5075872;28;20448;-67
2022/02/26 06:58:10;;;;;;;22.43;15.83;;;3.80;99.90;;;;;;5076057;28;20445;-68
2022/02/26 07:00:37;;;;;;;24.90;14.83;;;3.80;99.90;;;;;;5075637;28;20460;-67
2022/02/26 07:03:03;;;;;;;28.83;17.80;;;3.80;99.90;;;;;;5075348;28;20971;-67
2022/02/26 07:05:30;;;;;;;26.03;17.17;;;3.80;99.90;;;;;;5075340;28;20449;-67
2022/02/26 07:07:57;;;;;;;25.73;18.00;;;3.80;99.90;;;;;;5074715;28;20464;-68
2022/02/26 07:10:23;;;;;;;24.43;16.57;;;3.80;99.90;;;;;;5074904;28;20478;-67
2022/02/26 07:12:50;;;;;;;28.43;16.20;;;3.90;99.90;;;;;;5074644;28;20940;-67
2022/02/26 07:15:18;;;;;;;27.40;14.77;;;3.90;99.90;;;;;;5074727;28;20947;-67
2022/02/26 07:17:45;;;;;;;26.17;13.60;;;4.00;99.90;;;;;;5075479;28;20889;-67
2022/02/26 07:20:13;;;;;;;27.10;14.30;;;4.00;99.90;;;;;;5074853;28;20482;-67
2022/02/26 07:22:40;;;;;;;20.97;12.50;;;4.00;99.90;;;;;;5074696;28;20880;-67
2022/02/26 07:25:07;;;;;;;29.53;14.37;;;4.00;99.90;;;;;;5074886;28;20932;-67
2022/02/26 07:27:34;;;;;;;19.90;13.30;;;4.00;99.90;;;;;;5074750;28;20448;-67
2022/02/26 07:30:01;;;;;;;24.97;14.63;;;4.10;99.90;;;;;;5074552;28;20472;-68
2022/02/26 07:32:29;;;;;;;24.53;14.07;;;4.10;99.90;;;;;;5075214;28;20440;-67
2022/02/26 07:34:59;;;;;;;30.00;15.83;;;4.10;99.90;;;;;;5075262;28;20448;-67
2022/02/26 07:37:25;;;;;;;26.53;14.73;;;4.20;99.90;;;;;;5074708;28;20467;-67
2022/02/26 07:39:54;;;;;;;27.30;15.40;;;4.30;99.90;;;;;;5074345;28;20479;-67
2022/02/26 07:42:20;;;;;;;24.03;15.00;;;4.30;99.90;;;;;;5074356;28;20820;-67
2022/02/26 07:44:47;;;;;;;26.17;15.40;;;4.40;99.90;;;;;;5074566;28;20437;-67
2022/02/26 07:47:14;;;;;;;24.80;14.30;;;4.50;99.90;;;;;;5074528;28;20440;-67
2022/02/26 07:49:42;;;;;;;26.23;15.33;;;4.60;99.90;;;;;;5074119;28;20469;-67
2022/02/26 07:52:09;;;;;;;29.30;15.03;;;4.60;99.90;;;;;;5074444;28;20444;-67
2022/02/26 07:54:36;;;;;;;25.47;14.93;;;4.70;99.90;;;;;;5074638;28;20448;-67
2022/02/26 07:57:03;;;;;;;25.30;14.90;;;4.70;99.90;;;;;;5074687;28;20931;-68
2022/02/26 07:59:29;;;;;;;24.23;14.93;;;4.80;99.90;;;;;;5074156;28;20465;-68
2022/02/26 08:01:59;;;;;;;29.63;16.70;;;4.80;99.90;;;;;;5074101;28;20515;-68
2022/02/26 08:04:26;;;;;;;38.73;16.53;;;4.80;99.90;;;;;;5074144;28;20511;-68
2022/02/26 08:06:54;;;;;;;38.83;18.37;;;4.80;99.90;;;;;;5073802;28;20464;-68
2022/02/26 08:09:21;;;;;;;33.67;17.53;;;4.90;99.90;;;;;;5073957;28;20469;-68
2022/02/26 08:11:48;;;;;;;32.90;17.40;;;5.00;99.90;;;;;;5073609;28;20943;-68
2022/02/26 08:14:14;;;;;;;40.90;18.60;;;5.00;99.90;;;;;;5073868;28;20436;-68
2022/02/26 08:16:41;;;;;;;35.90;19.43;;;5.10;99.90;;;;;;5073616;28;20459;-68
2022/02/26 08:19:08;;;;;;;30.90;18.70;;;5.10;99.90;;;;;;5073767;28;20472;-68
2022/02/26 08:21:35;;;;;;;36.80;20.67;;;5.20;99.90;;;;;;5074030;28;20425;-68
2022/02/26 08:24:03;;;;;;;39.77;20.60;;;5.30;99.90;;;;;;5073817;28;20526;-69
2022/02/26 08:26:30;;;;;;;38.10;19.20;;;5.30;99.90;;;;;;5073995;28;20449;-68
2022/02/26 08:28:57;;;;;;;34.93;16.93;;;5.40;99.90;;;;;;5073646;28;20459;-68
2022/02/26 08:31:24;;;;;;;33.07;18.70;;;5.40;99.90;;;;;;5073693;28;20449;-68
2022/02/26 08:33:51;;;;;;;31.90;16.40;;;5.50;99.90;;;;;;5073687;28;20425;-68
2022/02/26 08:36:18;;;;;;;29.00;16.50;;;5.50;99.90;;;;;;5073492;28;20437;-68
2022/02/26 08:38:45;;;;;;;52.70;16.83;;;5.40;99.90;;;;;;5073458;28;20444;-67
2022/02/26 08:41:13;;;;;;;36.23;19.27;;;5.40;99.90;;;;;;5073827;28;20433;-68
2022/02/26 08:43:39;;;;;;;57.80;19.43;;;5.30;99.90;;;;;;5073443;28;20469;-68
2022/02/26 08:46:06;;;;;;;36.60;15.57;;;5.40;99.90;;;;;;5073237;28;20516;-68
2022/02/26 08:48:33;;;;;;;41.10;18.67;;;5.40;99.90;;;;;;5073054;28;20199;-68
2022/02/26 08:51:00;;;;;;;35.30;15.97;;;5.40;99.90;;;;;;5073229;28;20468;-68
2022/02/26 08:53:27;;;;;;;38.07;22.20;;;5.40;99.90;;;;;;5073334;28;20436;-68
2022/02/26 08:55:53;;;;;;;43.20;19.50;;;5.50;99.90;;;;;;5073351;28;20794;-68
2022/02/26 08:58:22;;;;;;;50.90;22.37;;;5.60;99.90;;;;;;5073343;28;20441;-68
2022/02/26 09:00:50;;;;;;;55.70;22.27;;;5.60;99.90;;;;;;5073221;28;20472;-68
2022/02/26 09:03:18;;;;;;;51.33;22.10;;;5.60;99.90;;;;;;5073213;28;20460;-68
2022/02/26 09:05:45;;;;;;;59.07;22.77;;;5.70;99.90;;;;;;5073226;28;20456;-68
2022/02/26 09:08:12;;;;;;;51.00;23.90;;;5.60;99.90;;;;;;5073341;28;20460;-71
2022/02/26 09:10:39;;;;;;;50.07;22.63;;;5.60;99.90;;;;;;5075513;28;20464;-70
2022/02/26 09:13:06;;;;;;;57.47;23.53;;;5.60;99.90;;;;;;5077346;28;20432;-69
2022/02/26 09:15:34;;;;;;;52.03;24.10;;;5.70;99.90;;;;;;5077202;28;20498;-69
2022/02/26 09:18:01;;;;;;;64.40;26.27;;;5.80;99.90;;;;;;5077193;28;20816;-70
2022/02/26 09:20:28;;;;;;;53.95;25.13;;;5.80;99.90;;;;;;5076508;28;20450;-70
2022/02/26 09:22:54;;;;;;;66.13;26.23;;;5.90;99.90;;;;;;5077029;28;20229;-70
2022/02/26 09:25:21;;;;;;;53.03;25.80;;;6.00;99.90;;;;;;5077068;28;20463;-69
2022/02/26 09:27:48;;;;;;;53.27;23.33;;;6.10;99.90;;;;;;5077581;28;20429;-69
2022/02/26 09:30:16;;;;;;;47.80;24.57;;;6.20;99.90;;;;;;5076789;28;20449;-69
2022/02/26 09:32:46;;;;;;;56.13;22.83;;;6.30;99.90;;;;;;5076944;28;20788;-69
2022/02/26 09:35:13;;;;;;;48.70;24.27;;;6.40;99.90;;;;;;5076926;28;20441;-69
2022/02/26 09:37:40;;;;;;;41.90;21.40;;;6.50;99.90;;;;;;5076977;28;20444;-70
2022/02/26 09:40:08;;;;;;;39.17;20.20;;;6.50;99.90;;;;;;5076634;28;20479;-69
2022/02/26 09:42:36;;;;;;;40.00;21.07;;;6.60;99.90;;;;;;5076592;28;20460;-69
2022/02/26 09:45:04;;;;;;;61.03;24.30;;;6.70;99.90;;;;;;5076189;28;21002;-69
2022/02/26 09:47:30;;;;;;;50.20;24.93;;;6.70;99.90;;;;;;5076451;28;20451;-70
2022/02/26 09:49:58;;;;;;;54.77;26.10;;;6.80;99.90;;;;;;5076158;28;20833;-69
2022/02/26 09:52:28;;;;;;;66.40;26.40;;;6.80;99.90;;;;;;5076309;28;20468;-69
2022/02/26 09:54:55;;;;;;;51.57;25.37;;;6.80;99.90;;;;;;5077620;28;20444;-69
2022/02/26 09:57:22;;;;;;;54.63;25.63;;;6.90;99.90;;;;;;5076400;28;20826;-69
2022/02/26 09:59:49;;;;;;;71.77;30.87;;;6.90;99.90;;;;;;5076077;28;20476;-69
2022/02/26 10:02:16;;;;;;;49.60;28.00;;;7.10;99.90;;;;;;5076287;28;20486;-69
2022/02/26 10:04:54;;;;;;;43.43;19.90;;;7.30;99.90;;;;;;5076209;28;20476;-69
2022/02/26 10:07:24;;;;;;;61.83;26.70;;;7.50;99.90;;;;;;5075951;28;20468;-70
2022/02/26 10:09:53;;;;;;;59.77;25.93;;;7.60;99.90;;;;;;5076171;28;20570;-69
2022/02/26 10:12:25;;;;;;;55.03;27.87;;;7.80;99.90;;;;;;5076107;28;20449;-69
2022/02/26 10:14:55;;;;;;;63.60;28.73;;;7.90;99.90;;;;;;5076051;28;20447;-69
2022/02/26 10:17:31;;;;;;;49.07;23.53;;;8.10;99.90;;;;;;5075970;28;20441;-70
2022/02/26 10:20:05;;;;;;;43.90;20.53;;;8.40;99.90;;;;;;5076004;28;20459;-69
2022/02/26 10:22:35;;;;;;;47.73;22.50;;;8.60;99.90;;;;;;5075689;28;20440;-69
2022/02/26 10:25:07;;;;;;;40.30;20.03;;;8.70;99.90;;;;;;5076001;28;20484;-69
2022/02/26 10:27:39;;;;;;;40.80;19.60;;;8.70;99.90;;;;;;5075999;28;20804;-69
2022/02/26 10:30:07;;;;;;;41.30;19.77;;;9.00;99.90;;;;;;5075871;28;21037;-69
2022/02/26 10:32:34;;;;;;;43.50;21.30;;;9.20;99.90;;;;;;5076443;28;20457;-69
2022/02/26 10:35:01;;;;;;;44.03;19.83;;;9.50;99.90;;;;;;5076844;28;20810;-69
2022/02/26 10:37:27;;;;;;;33.20;18.00;;;9.80;99.70;;;;;;5076231;28;20498;-70
2022/02/26 10:39:57;;;;;;;38.27;16.40;;;10.10;99.10;;;;;;5076101;28;20500;-69
2022/02/26 10:42:27;;;;;;;43.50;16.70;;;10.40;97.20;;;;;;5075905;28;20548;-70
2022/02/26 10:45:03;;;;;;;43.47;16.43;;;10.50;96.40;;;;;;5076358;28;20484;-70
2022/02/26 10:47:32;;;;;;;31.23;15.97;;;10.70;96.00;;;;;;5076220;28;20433;-70
2022/02/26 10:49:59;;;;;;;33.93;14.33;;;11.10;95.50;;;;;;5075472;28;20471;-69
2022/02/26 10:52:30;;;;;;;32.07;14.73;;;11.40;93.90;;;;;;5075463;28;20440;-69
2022/02/26 10:55:00;;;;;;;37.13;14.13;;;11.70;92.90;;;;;;5075071;28;20828;-69
2022/02/26 10:57:32;;;;;;;28.67;14.97;;;11.90;91.70;;;;;;5075557;28;20526;-69
2022/02/26 10:59:59;;;;;;;33.33;13.80;;;12.40;91.40;;;;;;5075917;28;20523;-70
2022/02/26 11:02:26;;;;;;;28.13;11.80;;;12.80;89.80;;;;;;5075315;28;20448;-70
2022/02/26 11:04:55;;;;;;;18.13;11.33;;;13.10;87.50;;;;;;5075074;28;20563;-70
2022/02/26 11:07:23;;;;;;;25.87;13.40;;;13.10;86.70;;;;;;5074656;28;20800;-70
2022/02/26 11:09:52;;;;;;;19.37;11.20;;;13.10;85.90;;;;;;5074646;28;20983;-70
2022/02/26 11:12:24;;;;;;;19.03;10.10;;;12.90;85.60;;;;;;5074771;28;20924;-69
2022/02/26 11:14:57;;;;;;;23.00;10.50;;;13.20;86.00;;;;;;5074728;28;20425;-69
2022/02/26 11:17:25;;;;;;;21.40;8.80;;;13.70;82.50;;;;;;5074746;28;20430;-70
2022/02/26 11:19:56;;;;;;;13.53;8.20;;;14.40;79.30;;;;;;5074576;28;20464;-69
2022/02/26 11:22:24;;;;;;;13.53;8.97;;;15.20;74.00;;;;;;5074729;28;20923;-70
2022/02/26 11:24:53;;;;;;;17.67;9.07;;;16.00;71.10;;;;;;5074781;28;20484;-70
2022/02/26 11:27:22;;;;;;;18.93;8.40;;;16.80;65.40;;;;;;5074679;28;20943;-70
2022/02/26 11:29:50;;;;;;;17.40;8.07;;;17.60;61.50;;;;;;5074602;28;20469;-70
2022/02/26 11:32:17;;;;;;;20.70;8.97;;;18.20;57.10;;;;;;5073864;28;20452;-70
2022/02/26 11:34:44;;;;;;;14.83;8.63;;;18.50;52.50;;;;;;5074600;28;20447;-71
2022/02/26 11:37:12;;;;;;;13.83;8.27;;;18.60;50.30;;;;;;5074673;28;20441;-71
2022/02/26 11:39:41;;;;;;;23.10;8.90;;;18.30;49.90;;;;;;5074479;28;20468;-70
2022/02/26 11:42:29;;;;;;;18.63;9.07;;;17.80;50.00;;;;;;5074433;28;20444;-70
2022/02/26 11:45:08;;;;;;;17.47;9.13;;;17.20;51.50;;;;;;5074073;28;20480;-70
2022/02/26 11:47:50;;;;;;;16.87;9.03;;;17.10;53.50;;;;;;5074547;28;20524;-70
2022/02/26 11:50:21;;;;;;;16.33;10.40;;;17.70;54.40;;;;;;5074375;28;20460;-70
2022/02/26 11:52:51;;;;;;;15.90;8.60;;;18.30;52.50;;;;;;5074512;28;20490;-70
2022/02/26 11:55:43;;;;;;;20.00;9.80;;;18.90;52.00;;;;;;5074263;28;20436;-70
2022/02/26 11:58:15;;;;;;;15.27;8.80;;;19.20;48.80;;;;;;5074406;28;20795;-70
2022/02/26 12:00:44;;;;;;;19.47;8.90;;;18.90;48.10;;;;;;5074399;28;20457;-69
2022/02/26 12:03:26;;;;;;;21.70;9.20;;;18.40;48.50;;;;;;5074522;28;20437;-70
2022/02/26 12:05:56;;;;;;;16.40;9.60;;;17.80;49.50;;;;;;5073876;28;20507;-70
2022/02/26 12:08:36;;;;;;;23.37;10.33;;;17.20;49.00;;;;;;5073764;28;20510;-71
2022/02/26 12:11:05;;;;;;;22.10;11.37;;;16.40;50.70;;;;;;5073677;28;20983;-70
2022/02/26 12:13:35;;;;;;;21.47;10.67;;;15.80;52.20;;;;;;5073493;28;20962;-70
2022/02/26 12:16:16;;;;;;;24.20;13.00;;;15.30;53.50;;;;;;5074341;28;20449;-70
2022/02/26 12:18:45;;;;;;;20.83;10.57;;;14.80;54.70;;;;;;5073668;28;20858;-70
2022/02/26 12:21:14;;;;;;;16.70;10.80;;;14.40;55.80;;;;;;5073342;28;20535;-69
2022/02/26 12:23:42;;;;;;;21.20;11.77;;;14.00;56.90;;;;;;5073659;28;20447;-70
2022/02/26 12:26:11;;;;;;;24.10;13.40;;;13.70;57.90;;;;;;5073443;28;20817;-70
2022/02/26 12:28:39;;;;;;;26.50;13.00;;;13.60;59.00;;;;;;5073603;28;20448;-70
2022/02/26 12:31:08;;;;;;;23.10;11.70;;;13.80;60.10;;;;;;5073107;28;20500;-69
2022/02/26 12:33:39;;;;;;;21.07;10.77;;;14.50;59.50;;;;;;5073592;28;20490;-70
2022/02/26 12:36:11;;;;;;;16.70;8.90;;;15.10;56.40;;;;;;5073570;28;20892;-70
2022/02/26 12:38:48;;;;;;;19.17;9.27;;;15.70;54.90;;;;;;5073541;28;20440;-70
2022/02/26 12:41:28;;;;;;;16.30;8.20;;;16.60;53.60;;;;;;5073187;28;20425;-70
2022/02/26 12:43:56;;;;;;;11.90;6.83;;;17.70;51.60;;;;;;5073228;28;20447;-70